• Join FlightAware (Why Join?)
  • Login
  • US Flag 
04:15AM EDT


 

Airport Tracker/Info


-or-


 

Live Flight TrackerFlight Track Log ✈ FSR411 ✈ 09-Dec-2013 ✈ KMDW - KTEB

Flight Track Log - Related Links

Times and Time Zones

All times are in EST time to prevent confusion due to time zone crossing. See the FSR411 flight status page for this flight to view local times or setup timezone preferences in your user account.

Time Position Orientation Groundspeed Altitude Reporting Facility
EST Latitude Longitude Course Direction KTS MPH feet Rate Location/Type
04:53PM 41.8333 -87.7667 76° East 224 258 2,600  Level Chicago TRACON
04:54PM 41.8167 -87.6667 103° East 289 333 3,000 660 Climbing Chicago TRACON
04:56PM 41.7969 -87.5369 101° East 286 329 4,100 1,920 Climbing Chicago Center
04:57PM 41.7861 -87.4211 97° East 314 361 7,300 3,300 Climbing Chicago Center
04:58PM 41.7792 -87.2989 94° East 327 376 11,000 3,300 Climbing Chicago Center
04:59PM 41.7735 -86.7661 76° East  Level Estimated
04:59PM 41.7689 -87.1633 96° East 361 415 14,200  Level Chicago Center
05:00PM 41.7736 -86.9972 88° East 448 516 17,200 2,940 Climbing Chicago Center
05:01PM 41.7953 -86.8144 81° East 493 567 20,300 3,120 Climbing Chicago Center
05:02PM 41.8183 -86.5939 82° East 531 611 23,700 2,940 Climbing Chicago Center
05:03PM 41.8389 -86.3897 82° East 550 633 26,400 2,460 Climbing Chicago Center
05:04PM 41.8606 -86.1797 82° East 566 651 28,900 2,100 Climbing Chicago Center
05:05PM 41.8808 -85.9650 83° East 577 664 30,800 1,860 Climbing Chicago Center
05:06PM 41.9028 -85.7428 82° East 593 682 32,800 1,920 Climbing Chicago Center
05:07PM 41.9239 -85.5181 83° East 599 689 34,800 1,680 Climbing Chicago Center
05:08PM 41.9447 -85.2939 83° East 597 687 36,300 1,560 Climbing Chicago Center
05:09PM 41.9511 -85.0231 88° East 600 690 38,100 1,500 Climbing Chicago Center
05:10PM 41.9494 -84.8036 91° East 592 681 39,400 1,080 Climbing Chicago Center
05:11PM 41.9483 -84.5856 90° East 584 672 40,400 720 Climbing Chicago Center
05:12PM 41.9458 -84.3672 91° East 585 673 41,000 240 Climbing Chicago Center
05:13PM 41.9442 -84.1433 90° East 597 687 41,000  Level Chicago Center
05:14PM 41.9411 -83.9244 91° East 607 699 41,000  Level Cleveland Center
05:15PM 41.9389 -83.7008 91° East 606 697 41,000  Level Cleveland Center
05:16PM 41.9347 -83.4594 91° East 604 695 41,000  Level Cleveland Center
05:17PM 41.9336 -83.2325 90° East 604 695 41,000  Level Cleveland Center
05:18PM 41.9325 -82.9939 90° East 599 689 41,000  Level Cleveland Center
05:19PM 41.9308 -82.7725 91° East 598 688 41,000  Level Cleveland Center
05:20PM 41.9264 -82.5508 91° East 597 687 41,000  Level Cleveland Center
05:21PM 41.9253 -82.3292 90° East 598 688 41,000  Level Cleveland Center
05:22PM 41.9203 -82.0628 91° East 603 694 41,000  Level Cleveland Center
05:23PM 41.9175 -81.8358 91° East 601 692 41,000  Level Cleveland Center
05:24PM 41.9403 -81.6069 82° East 611 703 41,000  Level Cleveland Center
05:25PM 41.9669 -81.3764 81° East 614 707 41,000  Level Cleveland Center
05:26PM 41.9911 -81.1469 82° East 612 704 41,000  Level Cleveland Center
05:27PM 42.0139 -80.9189 82° East 609 701 41,000  Level Cleveland Center
05:28PM 42.0383 -80.6917 82° East 607 699 41,000  Level Cleveland Center
05:29PM 42.0614 -80.4639 82° East 609 701 41,000  Level Cleveland Center
05:31PM 42.0814 -80.2369 83° East 606 697 41,000  Level Cleveland Center
05:32PM 42.0608 -79.9811 96° East 593 682 41,000  Level Cleveland Center
05:33PM 42.0425 -79.7594 96° East 597 687 41,000  Level Cleveland Center
05:34PM 42.0236 -79.5400 97° East 594 684 41,000  Level Cleveland Center
05:35PM 42.0044 -79.3189 97° East 596 686 41,000  Level Cleveland Center
05:36PM 41.9844 -79.0981 97° East 596 686 41,000  Level Cleveland Center
05:37PM 41.9636 -78.8783 97° East 594 684 41,000  Level Cleveland Center
05:38PM 41.9436 -78.6575 97° East 594 684 41,000  Level Cleveland Center
05:39PM 41.9183 -78.3939 97° East 593 682 41,000 -660 Level Cleveland Center
05:40PM 41.8969 -78.1761 97° East 591 680 39,700 -2,280 Descending Cleveland Center
05:41PM 41.8767 -77.9656 97° East 579 666 36,400 -2,400 Descending Cleveland Center
05:42PM 41.8453 -77.7875 103° East 564 649 35,000 -720 Descending New York Center
05:43PM 41.7981 -77.5961 108° East 550 633 35,000  Level New York Center
05:44PM 41.7483 -77.4103 110° East 538 619 35,000 -600 Level New York Center
05:45PM 41.7000 -77.2247 109° East 533 613 33,800 -1,620 Descending New York Center
05:46PM 41.6511 -77.0506 111° Southeast 513 590 31,800 -2,040 Descending New York Center
05:47PM 41.6058 -76.8800 109° East 497 572 29,800 1,560 Descending New York Center
05:48PM 41.5544 -76.7006 111° Southeast 480 552 35,000 -2,160 Climbing New York Center
05:49PM 41.5528 -76.5258 91° East 461 531 25,500 -5,400 Descending New York Center
05:50PM 41.6044 -76.3581 68° East 461 531 24,000 -780 Descending New York Center
05:51PM 41.5389 -76.2475 128° Southeast 368 423 24,000 -120 Level New York Center
05:52PM 41.4439 -76.1344 138° Southeast 360 414 23,800 -960 Descending New York Center
05:53PM 41.3875 -76.0028 120° Southeast 387 445 22,000 -1,680 Descending New York Center
05:54PM 41.3425 -75.8831 117° Southeast 400 460 20,500 -1,560 Descending New York Center
05:55PM 41.2942 -75.7497 116° Southeast 400 460 18,900 -1,440 Descending New York Center
05:56PM 41.2439 -75.6053 115° Southeast 395 455 17,700 -1,680 Descending New York Center
05:57PM 41.2011 -75.4781 114° Southeast 383 441 15,600 -2,160 Descending New York Center
05:58PM 41.1658 -75.3681 113° Southeast 371 427 13,400 -2,340 Descending New York Center
05:59PM 41.1208 -75.2356 114° Southeast 359 413 11,000 -2,280 Descending New York Center
06:00PM 41.0833 -75.1258 114° Southeast 340 391 8,900 -2,040 Descending New York Center
06:01PM 41.0478 -75.0192 114° Southeast 326 375 7,000 -1,980 Descending New York Center
06:02PM 41.0056 -74.9119 118° Southeast 321 369 5,000 -1,500 Descending New York Center
06:03PM 40.9675 -74.8133 117° Southeast 316 364 4,100 -480 Descending New York Center
06:04PM 40.9433 -74.7214 109° East 300 345 4,100 -300 Level New York Center
06:05PM 41.0022 -74.6422 45° Northeast 244 281 3,600 -600 Descending New York Center
06:06PM 41.0525 -74.5764 45° Northeast 244 281 3,000 -240 Descending New York Center
06:07PM 41.0514 -74.4744 91° East 255 293 3,200  Climbing New York Center
06:08PM 41.0481 -74.3808 93° East 278 320 3,100 -120 Descending New York Center
06:09PM 41.0389 -74.2703 96° East 271 312 3,000 -480 Descending New York Center
06:10PM 41.0331 -74.1819 95° East 252 290 2,200 -480 Descending New York Center
06:11PM 41.0311 -74.1103 92° East 229 264 2,100 -60 Descending New York Center
06:12PM 40.9908 -74.0644 139° Southeast 172 198 2,100 -60 Level New York Center
06:13PM 40.9472 -74.0539 170° South 172 198 2,000 -480 Descending New York Center
06:14PM 40.9000 -74.0500 176° South 132 152 1,200 -780 Descending New York TRACON
06:15PM 40.8833 -74.0500 180° South 119 137 500 -720 Descending New York TRACON
06:17PM 40.8500 -74.0500 136° Southeast  Level FlightAware Approximate
06:24PM 40.8501 -74.0608 136° Southeast  Level Estimated